createdAt,value
2023-10-05T00:01:46.282Z,9.40
2023-10-05T00:04:17.439Z,9.43
2023-10-05T00:06:46.451Z,9.10
2023-10-05T00:09:18.162Z,9.75
2023-10-05T00:11:46.477Z,9.65
2023-10-05T00:14:14.211Z,9.95
2023-10-05T00:16:45.998Z,8.88
2023-10-05T00:19:15.162Z,9.10
2023-10-05T00:21:50.164Z,9.98
2023-10-05T00:24:21.293Z,9.57
2023-10-05T00:26:50.359Z,9.20
2023-10-05T00:29:28.384Z,9.10
2023-10-05T00:32:00.266Z,9.50
2023-10-05T00:34:29.765Z,9.32
2023-10-05T00:36:59.880Z,9.10
2023-10-05T00:39:31.042Z,8.82
2023-10-05T00:42:09.818Z,9.30
2023-10-05T00:44:40.283Z,9.18
2023-10-05T00:47:08.479Z,9.02
2023-10-05T00:49:47.083Z,9.30
2023-10-05T00:52:16.554Z,8.65
2023-10-05T00:54:49.967Z,8.95
2023-10-05T00:57:20.882Z,8.95
2023-10-05T00:59:59.219Z,8.95
2023-10-05T01:02:27.918Z,9.15
2023-10-05T01:04:57.888Z,8.68
2023-10-05T01:07:44.518Z,8.40
2023-10-05T01:10:42.383Z,8.68
2023-10-05T02:35:00.320Z,10.82
2023-10-05T02:37:30.058Z,9.52
2023-10-05T02:39:59.051Z,9.75
2023-10-05T02:42:26.899Z,10.07
2023-10-05T02:44:56.139Z,9.43
2023-10-05T02:47:25.115Z,10.05
2023-10-05T02:49:54.378Z,9.80
2023-10-05T02:52:22.249Z,9.15
2023-10-05T02:54:50.552Z,9.48
2023-10-05T02:57:19.094Z,10.20
2023-10-05T02:59:46.859Z,9.20
2023-10-05T03:02:17.770Z,9.50
2023-10-05T03:04:49.981Z,9.93
2023-10-05T03:07:20.546Z,9.88
2023-10-05T03:09:50.352Z,9.80
2023-10-05T03:12:21.532Z,10.23
2023-10-05T03:14:51.625Z,10.35
2023-10-05T03:17:21.939Z,11.13
2023-10-05T03:19:51.282Z,11.43
2023-10-05T03:22:24.930Z,11.55
2023-10-05T03:24:55.377Z,12.07
2023-10-05T03:27:23.822Z,11.25
2023-10-05T03:29:53.789Z,11.38
2023-10-05T03:32:21.504Z,10.90
2023-10-05T03:34:56.871Z,12.55
2023-10-05T03:37:26.380Z,11.25
2023-10-05T03:39:55.011Z,11.48
2023-10-05T03:42:23.650Z,11.80
2023-10-05T03:45:01.593Z,12.18
2023-10-05T03:47:29.765Z,12.10
2023-10-05T03:49:57.509Z,13.25
2023-10-05T03:52:30.913Z,12.98
2023-10-05T03:55:02.645Z,13.55
2023-10-05T03:57:32.366Z,15.10
2023-10-05T04:00:01.817Z,12.18
2023-10-05T04:02:30.652Z,13.00
2023-10-05T04:04:59.778Z,13.77
2023-10-05T04:07:29.896Z,12.73
2023-10-05T04:10:03.324Z,14.38
2023-10-05T04:12:33.643Z,11.23
2023-10-05T04:15:02.203Z,14.02
2023-10-05T04:17:29.896Z,12.07
2023-10-05T04:19:57.568Z,12.23
2023-10-05T04:22:26.466Z,12.07
2023-10-05T04:24:55.984Z,12.05
2023-10-05T04:27:23.770Z,11.35
2023-10-05T04:29:52.112Z,11.43
2023-10-05T04:32:19.770Z,12.57
2023-10-05T04:34:47.705Z,10.75
2023-10-05T04:37:15.399Z,11.15
2023-10-05T04:39:44.431Z,17.23
2023-10-05T04:42:16.623Z,11.60
2023-10-05T04:47:15.758Z,10.43
2023-10-05T04:49:45.407Z,11.63
2023-10-05T04:52:20.596Z,12.48
2023-10-05T04:54:52.929Z,11.80
2023-10-05T05:00:24.946Z,12.05
2023-10-05T05:03:06.501Z,13.38
2023-10-05T05:05:36.395Z,11.00
2023-10-05T05:08:04.385Z,13.50
2023-10-05T05:10:32.442Z,11.32
2023-10-05T05:13:01.979Z,11.88
2023-10-05T05:15:30.150Z,11.10
2023-10-05T05:17:59.634Z,11.27
2023-10-05T05:20:27.508Z,11.82
2023-10-05T05:22:55.176Z,13.95
2023-10-05T05:25:23.697Z,12.43
2023-10-05T05:27:51.841Z,11.15
2023-10-05T05:30:30.616Z,11.20
2023-10-05T05:32:58.687Z,11.40
2023-10-05T05:35:26.757Z,11.32
2023-10-05T05:37:57.376Z,10.75
2023-10-05T05:40:29.898Z,11.90
2023-10-05T05:42:58.791Z,11.05
2023-10-05T05:45:28.023Z,10.27
2023-10-05T05:47:55.995Z,11.38
2023-10-05T05:50:30.192Z,10.57
2023-10-05T05:52:59.688Z,12.77
2023-10-05T05:55:28.193Z,10.93
2023-10-05T05:57:57.210Z,11.13
2023-10-05T06:00:25.224Z,11.30
2023-10-05T06:02:54.951Z,11.65
2023-10-05T06:05:24.545Z,11.77
2023-10-05T06:07:52.552Z,10.07
2023-10-05T06:10:29.803Z,12.27
2023-10-05T06:12:59.533Z,10.57
2023-10-05T06:15:27.944Z,11.95
2023-10-05T06:17:57.016Z,11.70
2023-10-05T06:20:24.769Z,11.52
2023-10-05T06:22:52.399Z,12.07
2023-10-05T06:25:20.351Z,10.52
2023-10-05T06:27:48.537Z,10.93
2023-10-05T06:30:16.600Z,11.15
2023-10-05T06:32:45.016Z,11.48
2023-10-05T06:35:14.109Z,10.65
2023-10-05T06:37:42.808Z,11.80
2023-10-05T06:40:14.002Z,12.00
2023-10-05T06:42:42.842Z,11.32
2023-10-05T06:45:12.252Z,10.80
2023-10-05T06:47:40.259Z,11.20
2023-10-05T06:50:10.384Z,11.60
2023-10-05T06:52:40.828Z,11.05
2023-10-05T06:55:09.999Z,11.32
2023-10-05T06:57:37.990Z,12.15
2023-10-05T07:00:12.829Z,11.57
2023-10-05T07:02:41.403Z,11.88
2023-10-05T07:05:09.894Z,11.52
2023-10-05T07:07:39.379Z,11.25
2023-10-05T07:10:08.438Z,12.32
2023-10-05T07:12:37.289Z,11.30
2023-10-05T07:15:06.265Z,11.38
2023-10-05T07:17:34.199Z,12.52
2023-10-05T07:20:02.295Z,15.80
2023-10-05T07:22:30.831Z,12.43
2023-10-05T07:25:00.473Z,11.73
2023-10-05T07:27:29.116Z,11.38
2023-10-05T07:29:56.816Z,10.52
2023-10-05T07:32:24.572Z,11.13
2023-10-05T07:34:55.167Z,10.80
2023-10-05T07:37:22.900Z,11.80
2023-10-05T07:39:52.198Z,11.32
2023-10-05T07:42:21.286Z,10.73
2023-10-05T07:44:49.005Z,12.07
2023-10-05T07:47:17.054Z,11.70
2023-10-05T07:49:44.767Z,11.07
2023-10-05T07:52:12.645Z,11.00
2023-10-05T07:54:40.505Z,11.40
2023-10-05T07:57:10.188Z,10.63
2023-10-05T07:59:42.011Z,11.00
2023-10-05T08:02:10.765Z,11.75
2023-10-05T08:04:38.889Z,11.15
2023-10-05T08:07:07.048Z,11.38
2023-10-05T08:09:35.574Z,11.80
2023-10-05T08:12:04.079Z,11.38
2023-10-05T08:14:33.934Z,11.57
2023-10-05T08:17:04.394Z,11.43
2023-10-05T08:19:32.219Z,12.02
2023-10-05T08:22:00.105Z,11.48
2023-10-05T08:26:59.509Z,11.83
2023-10-05T08:29:29.109Z,11.85
2023-10-05T08:31:58.144Z,12.05
2023-10-05T08:34:33.600Z,11.82
2023-10-05T08:37:03.314Z,11.18
2023-10-05T08:39:36.620Z,11.55
2023-10-05T08:42:08.745Z,12.07
2023-10-05T08:44:39.748Z,11.93
2023-10-05T08:47:12.463Z,11.65
2023-10-05T08:49:44.535Z,11.55
2023-10-05T08:52:20.574Z,12.88
2023-10-05T08:54:48.953Z,11.43
2023-10-05T08:57:18.679Z,11.60
2023-10-05T08:59:47.892Z,12.10
2023-10-05T09:02:19.863Z,11.98
2023-10-05T09:07:34.440Z,11.93
2023-10-05T09:10:04.025Z,12.00
2023-10-05T09:12:35.913Z,11.82
2023-10-05T09:15:10.964Z,12.52
2023-10-05T09:17:39.445Z,12.50
2023-10-05T09:20:25.175Z,11.95
2023-10-05T09:22:55.006Z,12.25
2023-10-05T09:25:28.432Z,12.32
2023-10-05T09:27:57.481Z,13.13
2023-10-05T09:30:30.692Z,13.27
2023-10-05T09:33:08.810Z,13.63
2023-10-05T09:35:37.929Z,12.35
2023-10-05T09:38:09.033Z,12.80
2023-10-05T09:40:36.866Z,12.32
2023-10-05T09:43:10.902Z,12.75
2023-10-05T09:45:44.414Z,13.45
2023-10-05T09:48:14.453Z,13.20
2023-10-05T09:50:43.775Z,13.02
2023-10-05T09:53:12.477Z,12.75
2023-10-05T09:55:41.582Z,12.73
2023-10-05T09:58:14.080Z,13.10
2023-10-05T10:00:50.624Z,12.10
2023-10-05T10:03:18.641Z,13.40
2023-10-05T10:05:50.022Z,13.60
2023-10-05T10:08:22.441Z,13.63
2023-10-05T10:11:02.232Z,12.48
2023-10-05T10:13:34.319Z,12.95
2023-10-05T10:18:39.285Z,13.57
2023-10-05T10:21:13.851Z,13.10
2023-10-05T10:23:41.930Z,13.32
2023-10-05T10:26:18.083Z,13.68
2023-10-05T10:29:11.063Z,13.65
2023-10-05T10:31:45.638Z,12.40
2023-10-05T10:34:20.118Z,15.57
2023-10-05T10:36:53.313Z,13.60
2023-10-05T10:39:25.907Z,13.35
2023-10-05T10:42:02.128Z,12.93
2023-10-05T10:44:29.863Z,12.65
2023-10-05T10:47:12.641Z,14.40
2023-10-05T10:49:41.456Z,12.95
2023-10-05T10:52:16.910Z,13.13
2023-10-05T10:54:50.038Z,12.95
2023-10-05T10:57:22.616Z,12.98
2023-10-05T10:59:55.977Z,12.95
2023-10-05T11:02:24.508Z,12.50
2023-10-05T11:05:00.442Z,12.38
2023-10-05T11:07:36.333Z,12.60
2023-10-05T11:10:08.285Z,12.48
2023-10-05T11:12:43.953Z,12.52
2023-10-05T11:15:19.688Z,13.13
2023-10-05T11:17:48.234Z,12.75
2023-10-05T11:20:26.077Z,12.68
2023-10-05T11:22:56.998Z,13.65
2023-10-05T11:25:33.109Z,13.07
2023-10-05T11:28:01.632Z,14.20
2023-10-05T11:30:46.647Z,12.18
2023-10-05T11:34:00.812Z,14.02
2023-10-05T11:39:00.215Z,13.18
2023-10-05T11:41:30.113Z,13.63
2023-10-05T11:43:59.907Z,12.45
2023-10-05T11:46:43.919Z,13.25
2023-10-05T11:49:12.033Z,12.82
2023-10-05T11:51:43.020Z,13.00
2023-10-05T11:54:12.140Z,13.77
2023-10-05T11:56:41.853Z,13.05
2023-10-05T11:59:11.874Z,12.93
2023-10-05T12:01:41.864Z,12.68
2023-10-05T12:04:10.555Z,12.77
2023-10-05T12:06:39.983Z,13.02
2023-10-05T12:09:09.301Z,13.13
2023-10-05T12:11:39.648Z,13.23
2023-10-05T12:14:07.545Z,12.02
2023-10-05T12:16:35.907Z,13.55
2023-10-05T12:19:15.018Z,13.95
2023-10-05T12:21:43.767Z,13.35
2023-10-05T12:24:13.013Z,12.55
2023-10-05T12:26:44.507Z,12.60
2023-10-05T12:29:14.164Z,12.95
2023-10-05T12:31:42.391Z,13.48
2023-10-05T12:34:27.669Z,13.30
2023-10-05T12:36:56.133Z,13.55
2023-10-05T12:39:27.687Z,13.40
2023-10-05T12:41:56.846Z,12.73
2023-10-05T12:44:24.973Z,14.57
2023-10-05T12:46:52.864Z,12.82
2023-10-05T12:49:21.735Z,12.45
2023-10-05T12:51:51.407Z,12.90
2023-10-05T12:54:20.381Z,12.80
2023-10-05T12:56:48.261Z,12.63
2023-10-05T12:59:17.417Z,12.68
2023-10-05T13:01:45.488Z,12.68
2023-10-05T13:04:13.942Z,13.45
2023-10-05T13:06:42.159Z,13.15
2023-10-05T13:09:14.148Z,13.52
2023-10-05T13:11:42.829Z,12.80
2023-10-05T13:14:10.828Z,12.90
2023-10-05T13:16:40.921Z,12.32
2023-10-05T13:19:10.874Z,13.55
2023-10-05T13:21:40.647Z,13.25
2023-10-05T13:24:10.402Z,14.20
2023-10-05T13:26:38.145Z,12.90
2023-10-05T13:29:09.072Z,12.57
2023-10-05T13:31:40.244Z,13.10
2023-10-05T13:34:12.556Z,13.20
2023-10-05T13:36:40.297Z,13.30
2023-10-05T13:39:11.550Z,12.82
2023-10-05T13:41:45.325Z,12.43
2023-10-05T13:44:13.052Z,13.25
2023-10-05T13:46:46.044Z,13.25
2023-10-05T13:49:18.036Z,13.65
2023-10-05T13:51:51.915Z,13.18
2023-10-05T13:54:19.577Z,12.60
2023-10-05T13:56:50.227Z,13.27
2023-10-05T13:59:22.427Z,13.05
2023-10-05T14:01:54.368Z,12.65
2023-10-05T14:04:24.796Z,12.55
2023-10-05T14:06:52.805Z,13.30
2023-10-05T14:09:24.080Z,12.35
2023-10-05T14:11:53.420Z,13.00
2023-10-05T14:14:21.118Z,12.90
2023-10-05T14:16:51.286Z,13.32
2023-10-05T14:19:20.203Z,12.40
2023-10-05T14:21:49.417Z,12.25
2023-10-05T14:24:19.095Z,12.93
2023-10-05T14:26:49.848Z,12.90
2023-10-05T14:29:18.482Z,12.30
2023-10-05T14:31:49.414Z,12.20
2023-10-05T14:34:19.642Z,12.83
2023-10-05T14:36:50.056Z,12.60
2023-10-05T14:39:22.734Z,12.43
2023-10-05T14:41:52.871Z,13.63
2023-10-05T14:44:20.931Z,12.85
2023-10-05T14:46:51.273Z,13.18
2023-10-05T14:49:23.123Z,13.10
2023-10-05T14:51:52.808Z,13.13
2023-10-05T14:54:22.851Z,13.63
2023-10-05T14:56:51.206Z,12.18
2023-10-05T14:59:20.321Z,12.43
2023-10-05T15:01:48.263Z,12.07
2023-10-05T15:04:18.180Z,11.90
2023-10-05T15:06:45.985Z,12.50
2023-10-05T15:09:21.661Z,12.20
2023-10-05T15:11:50.040Z,11.88
2023-10-05T15:14:18.033Z,13.18
2023-10-05T15:16:46.286Z,12.52
2023-10-05T15:19:14.039Z,11.95
2023-10-05T15:21:42.190Z,12.73
2023-10-05T15:24:12.512Z,12.25
2023-10-05T15:26:42.308Z,12.88
2023-10-05T15:29:11.262Z,11.85
2023-10-05T15:31:39.459Z,12.43
2023-10-05T15:34:08.812Z,12.00
2023-10-05T15:36:36.667Z,11.90
2023-10-05T15:39:04.930Z,11.70
2023-10-05T15:41:32.594Z,11.93
2023-10-05T15:44:05.491Z,12.13
2023-10-05T15:46:33.543Z,11.93
2023-10-05T15:49:01.273Z,13.65
2023-10-05T15:51:28.917Z,14.13
2023-10-05T15:53:59.165Z,11.93
2023-10-05T15:56:29.828Z,12.25
2023-10-05T15:58:57.605Z,11.98
2023-10-05T16:01:27.766Z,13.05
2023-10-05T16:03:57.636Z,11.85
2023-10-05T16:06:26.539Z,13.73
2023-10-05T16:08:55.404Z,13.40
2023-10-05T16:11:25.188Z,11.40
2023-10-05T16:13:52.911Z,11.48
2023-10-05T16:16:20.763Z,12.90
2023-10-05T16:18:49.795Z,11.82
2023-10-05T16:21:17.525Z,11.90
2023-10-05T16:23:45.448Z,11.65
2023-10-05T16:26:13.210Z,12.00
2023-10-05T16:28:40.887Z,12.02
2023-10-05T16:31:09.414Z,14.35
2023-10-05T16:33:37.265Z,13.43
2023-10-05T16:36:07.014Z,12.45
2023-10-05T16:38:35.399Z,12.80
2023-10-05T16:41:03.042Z,12.75
2023-10-05T16:43:30.821Z,12.70
2023-10-05T16:45:59.089Z,12.73
2023-10-05T16:48:27.766Z,12.52
2023-10-05T16:50:55.493Z,11.88
2023-10-05T16:53:26.766Z,12.15
2023-10-05T16:55:54.734Z,12.20
2023-10-05T16:58:22.556Z,12.00
2023-10-05T17:00:50.854Z,12.27
2023-10-05T17:03:19.091Z,13.30
2023-10-05T17:05:46.965Z,12.93
2023-10-05T17:08:14.696Z,12.60
2023-10-05T17:10:44.336Z,12.20
2023-10-05T17:13:11.988Z,12.25
2023-10-05T17:15:40.003Z,13.13
2023-10-05T17:18:08.792Z,13.02
2023-10-05T17:20:38.054Z,12.90
2023-10-05T17:23:06.115Z,12.27
2023-10-05T17:28:04.804Z,11.57
2023-10-05T17:30:32.502Z,11.90
2023-10-05T17:33:00.236Z,12.18
2023-10-05T17:35:29.506Z,12.95
2023-10-05T17:37:57.908Z,12.25
2023-10-05T17:40:25.827Z,11.90
2023-10-05T17:42:53.754Z,12.65
2023-10-05T17:45:22.882Z,12.52
2023-10-05T17:47:52.335Z,13.32
2023-10-05T17:50:20.036Z,12.43
2023-10-05T17:52:49.668Z,11.95
2023-10-05T17:55:17.760Z,12.80
2023-10-05T17:57:45.557Z,14.73
2023-10-05T18:00:16.556Z,14.50
2023-10-05T18:02:48.056Z,15.65
2023-10-05T18:05:17.012Z,15.27
2023-10-05T18:07:45.074Z,13.05
2023-10-05T18:10:12.990Z,12.23
2023-10-05T18:12:40.882Z,13.48
2023-10-05T18:15:09.601Z,13.00
2023-10-05T18:17:37.474Z,12.77
2023-10-05T18:20:08.450Z,13.23
2023-10-05T18:22:36.198Z,12.90
2023-10-05T18:25:04.277Z,13.43
2023-10-05T18:27:32.058Z,13.30
2023-10-05T18:29:59.735Z,13.07
2023-10-05T18:32:27.511Z,12.65
2023-10-05T18:34:55.358Z,14.52
2023-10-05T18:37:24.411Z,13.25
2023-10-05T18:39:52.070Z,12.82
2023-10-05T18:42:21.007Z,13.60
2023-10-05T18:44:48.879Z,13.10
2023-10-05T18:47:16.627Z,15.10
2023-10-05T18:49:44.345Z,13.30
2023-10-05T18:52:12.080Z,14.77
2023-10-05T18:54:43.422Z,13.32
2023-10-05T18:57:13.434Z,12.93
2023-10-05T18:59:41.347Z,13.73
2023-10-05T19:02:09.683Z,13.68
2023-10-05T19:04:37.473Z,14.25
2023-10-05T19:07:05.301Z,13.15
2023-10-05T19:09:33.072Z,13.98
2023-10-05T19:12:02.151Z,12.68
2023-10-05T19:14:29.863Z,13.60
2023-10-05T19:16:57.550Z,12.98
2023-10-05T19:19:25.275Z,12.35
2023-10-05T19:21:53.390Z,13.48
2023-10-05T19:24:21.106Z,12.20
2023-10-05T19:26:49.995Z,12.85
2023-10-05T19:29:19.078Z,14.23
2023-10-05T19:31:47.504Z,14.25
2023-10-05T19:34:16.486Z,13.63
2023-10-05T19:36:44.310Z,15.18
2023-10-05T19:39:12.429Z,14.77
2023-10-05T19:41:40.119Z,13.15
2023-10-05T19:44:08.366Z,12.95
2023-10-05T19:46:37.658Z,13.73
2023-10-05T19:49:07.643Z,13.40
2023-10-05T19:51:35.568Z,14.82
2023-10-05T19:54:03.752Z,14.52
2023-10-05T19:56:37.498Z,13.15
2023-10-05T19:59:06.065Z,14.40
2023-10-05T20:01:33.951Z,13.20
2023-10-05T20:04:03.274Z,13.32
2023-10-05T20:06:31.387Z,14.60
2023-10-05T20:08:59.513Z,14.20
2023-10-05T20:11:27.278Z,15.13
2023-10-05T20:13:55.018Z,13.35
2023-10-05T20:16:22.770Z,13.57
2023-10-05T20:18:50.619Z,14.30
2023-10-05T20:21:19.643Z,13.73
2023-10-05T20:23:47.537Z,15.93
2023-10-05T20:26:15.217Z,16.15
2023-10-05T20:28:42.971Z,24.02
2023-10-05T20:31:11.194Z,24.05
2023-10-05T20:33:38.925Z,15.27
2023-10-05T20:36:07.509Z,14.73
2023-10-05T20:38:36.767Z,13.90
2023-10-05T20:41:06.169Z,14.50
2023-10-05T20:43:34.060Z,12.48
2023-10-05T20:46:06.317Z,13.98
2023-10-05T20:48:35.139Z,13.85
2023-10-05T20:51:03.045Z,13.23
2023-10-05T20:53:30.741Z,13.43
2023-10-05T20:55:59.861Z,13.25
2023-10-05T20:58:27.816Z,13.90
2023-10-05T21:00:56.764Z,12.40
2023-10-05T21:03:24.572Z,12.90
2023-10-05T21:06:00.306Z,12.85
2023-10-05T21:08:29.753Z,13.27
2023-10-05T21:10:58.849Z,13.63
2023-10-05T21:13:26.594Z,13.52
2023-10-05T21:15:54.316Z,13.80
2023-10-05T21:18:22.255Z,14.23
2023-10-05T21:20:50.208Z,12.75
2023-10-05T21:23:18.260Z,14.07
2023-10-05T21:25:48.573Z,13.32
2023-10-05T21:28:18.026Z,14.38
2023-10-05T21:30:46.456Z,13.73
2023-10-05T21:33:17.175Z,13.18
2023-10-05T21:35:45.252Z,13.13
2023-10-05T21:38:13.082Z,13.80
2023-10-05T21:40:41.329Z,14.18
2023-10-05T21:43:09.071Z,13.13
2023-10-05T21:45:38.105Z,12.18
2023-10-05T21:48:06.329Z,13.00
2023-10-05T21:50:34.401Z,13.57
2023-10-05T21:53:05.059Z,13.20
2023-10-05T21:55:32.868Z,12.25
2023-10-05T21:58:00.606Z,12.77
2023-10-05T22:00:53.990Z,12.18
2023-10-05T22:03:25.336Z,12.68
2023-10-05T22:05:53.310Z,12.07
2023-10-05T22:08:21.016Z,12.50
2023-10-05T22:10:49.878Z,13.32
2023-10-05T22:13:17.626Z,13.40
2023-10-05T22:15:45.924Z,12.55
2023-10-05T22:18:13.980Z,12.35
2023-10-05T22:20:43.137Z,12.07
2023-10-05T22:23:11.544Z,11.35
2023-10-05T22:25:40.311Z,12.20
2023-10-05T22:28:09.421Z,13.23
2023-10-05T22:30:38.737Z,12.70
2023-10-05T22:33:07.438Z,12.90
2023-10-05T22:35:36.991Z,13.93
2023-10-05T22:38:06.375Z,13.00
2023-10-05T22:40:35.407Z,13.18
2023-10-05T22:43:03.523Z,12.18
2023-10-05T22:45:31.415Z,12.65
2023-10-05T22:47:59.365Z,12.27
2023-10-05T22:50:27.270Z,12.55
2023-10-05T22:52:55.113Z,13.25
2023-10-05T22:55:24.257Z,12.35
2023-10-05T22:57:51.998Z,12.82
2023-10-05T23:00:19.937Z,13.35
2023-10-05T23:02:47.714Z,12.88
2023-10-05T23:05:15.468Z,15.10
2023-10-05T23:07:43.180Z,12.10
2023-10-05T23:10:12.530Z,13.50
2023-10-05T23:12:42.180Z,13.27
2023-10-05T23:15:11.875Z,13.43
2023-10-05T23:17:40.252Z,12.18
2023-10-05T23:20:12.380Z,12.60
2023-10-05T23:25:18.628Z,11.82
2023-10-05T23:27:48.613Z,11.85
2023-10-05T23:30:17.473Z,12.88
2023-10-05T23:32:46.550Z,13.05
2023-10-05T23:35:17.614Z,11.90
2023-10-05T23:37:51.958Z,12.73
2023-10-05T23:40:21.691Z,11.95
2023-10-05T23:42:50.836Z,11.93
2023-10-05T23:45:19.325Z,12.57
2023-10-05T23:47:49.152Z,11.93
2023-10-05T23:50:26.253Z,13.05
2023-10-05T23:52:56.810Z,12.88
2023-10-05T23:55:24.845Z,12.13
2023-10-05T23:57:54.314Z,12.23
